Time;durP1;ratioP1;P1;durP2;ratioP2;P2;SDS_P1;SDS_P2;PMS_P1;PMS_P2;Temp;Humidity;BMP_temperature;BMP_pressure;BME280_temperature;BME280_humidity;BME280_pressure;Samples;Min_cycle;Max_cycle;Signal;HPM_P1;HPM_P2
2021/06/15 00:00:59;;;;;;;4.20;3.80;;;15.60;71.20;;;;;;5091735;28;20435;-69
2021/06/15 00:03:30;;;;;;;9.10;5.13;;;15.50;71.20;;;;;;5092566;28;20437;-69
2021/06/15 00:05:57;;;;;;;7.00;3.97;;;15.40;72.00;;;;;;5091998;28;20457;-69
2021/06/15 00:08:24;;;;;;;4.93;4.10;;;15.30;72.20;;;;;;5092219;28;20435;-69
2021/06/15 00:10:52;;;;;;;4.37;3.97;;;15.30;72.60;;;;;;5091765;28;20470;-69
2021/06/15 00:13:19;;;;;;;5.20;4.20;;;15.30;72.20;;;;;;5092230;28;20540;-68
2021/06/15 00:15:51;;;;;;;4.37;3.93;;;15.20;71.80;;;;;;5091305;28;20435;-69
2021/06/15 00:18:21;;;;;;;5.27;4.07;;;15.10;72.10;;;;;;5092242;28;20431;-69
2021/06/15 00:20:51;;;;;;;6.10;4.30;;;15.00;72.80;;;;;;5091691;28;20435;-69
2021/06/15 00:23:23;;;;;;;6.97;4.47;;;15.00;73.50;;;;;;5092116;28;21323;-68
2021/06/15 00:25:50;;;;;;;7.67;4.53;;;15.10;74.00;;;;;;5091922;28;20458;-69
2021/06/15 00:28:19;;;;;;;6.53;3.60;;;15.00;74.00;;;;;;5092048;28;20466;-68
2021/06/15 00:30:46;;;;;;;9.77;4.50;;;15.00;74.40;;;;;;5091636;28;20435;-68
2021/06/15 00:33:17;;;;;;;6.30;4.50;;;15.00;73.80;;;;;;5092161;28;20486;-69
2021/06/15 00:35:44;;;;;;;4.50;3.67;;;14.90;73.80;;;;;;5090848;28;20488;-68
2021/06/15 00:38:13;;;;;;;5.70;4.60;;;14.90;74.10;;;;;;5092086;28;20435;-69
2021/06/15 00:40:40;;;;;;;6.10;4.37;;;14.80;74.40;;;;;;5092037;28;20492;-69
2021/06/15 00:43:07;;;;;;;7.33;4.70;;;14.80;74.70;;;;;;5096103;28;20929;-69
2021/06/15 00:45:34;;;;;;;5.47;3.87;;;14.80;74.90;;;;;;5095195;28;20469;-68
2021/06/15 00:48:01;;;;;;;7.87;4.80;;;14.80;75.00;;;;;;5095928;28;20431;-69
2021/06/15 00:50:29;;;;;;;5.20;4.40;;;14.80;74.90;;;;;;5095064;28;20450;-68
2021/06/15 00:52:57;;;;;;;4.60;4.03;;;14.80;74.80;;;;;;5095644;28;20489;-69
2021/06/15 00:55:27;;;;;;;5.20;4.13;;;14.80;74.50;;;;;;5095451;28;20504;-68
2021/06/15 00:57:54;;;;;;;4.80;3.70;;;14.80;74.20;;;;;;5095671;28;20487;-68
2021/06/15 01:00:22;;;;;;;6.67;3.80;;;14.80;74.10;;;;;;5094910;28;20434;-68
2021/06/15 01:02:50;;;;;;;5.17;3.73;;;14.80;74.10;;;;;;5095395;28;20431;-69
2021/06/15 01:05:17;;;;;;;4.63;3.90;;;14.70;73.70;;;;;;5094966;28;20435;-69
2021/06/15 01:07:54;;;;;;;6.80;4.57;;;14.70;74.00;;;;;;5095520;28;20446;-68
2021/06/15 01:10:43;;;;;;;4.90;4.50;;;14.60;74.40;;;;;;5094696;28;20446;-68
2021/06/15 01:13:25;;;;;;;5.57;3.57;;;14.50;74.70;;;;;;5095211;28;20478;-68
2021/06/15 01:16:02;;;;;;;6.57;4.43;;;14.60;75.00;;;;;;5094215;28;20951;-69
2021/06/15 01:18:31;;;;;;;7.80;4.40;;;14.60;74.50;;;;;;5095242;28;20442;-68
2021/06/15 01:21:01;;;;;;;12.77;3.83;;;14.50;74.90;;;;;;5094498;28;20435;-68
2021/06/15 01:23:35;;;;;;;7.93;3.90;;;14.40;75.50;;;;;;5095123;28;20435;-69
2021/06/15 01:26:15;;;;;;;6.80;4.40;;;14.30;75.50;;;;;;5094570;28;20439;-68
2021/06/15 01:28:47;;;;;;;7.10;4.47;;;14.30;76.30;;;;;;5094687;28;20462;-69
2021/06/15 01:31:20;;;;;;;7.47;5.20;;;14.20;76.60;;;;;;5094535;28;20439;-68
2021/06/15 01:33:51;;;;;;;4.90;3.90;;;14.20;76.60;;;;;;5094690;28;20482;-70
2021/06/15 01:36:22;;;;;;;7.90;4.20;;;14.20;76.70;;;;;;5074295;28;20922;-68
2021/06/15 01:38:54;;;;;;;9.73;4.57;;;14.10;76.80;;;;;;5074553;28;20190;-69
2021/06/15 01:41:29;;;;;;;4.50;4.10;;;14.10;77.10;;;;;;5074615;28;20459;-68
2021/06/15 01:44:02;;;;;;;7.33;5.57;;;14.10;78.00;;;;;;5075215;28;20930;-69
2021/06/15 01:46:36;;;;;;;9.57;5.33;;;14.10;77.70;;;;;;5094221;28;20439;-69
2021/06/15 01:49:08;;;;;;;8.10;4.30;;;14.00;77.20;;;;;;5094261;28;20484;-69
2021/06/15 01:51:37;;;;;;;7.90;4.40;;;14.00;77.50;;;;;;5094335;28;20293;-68
2021/06/15 01:54:09;;;;;;;5.53;4.53;;;14.00;77.80;;;;;;5092583;28;20483;-69
2021/06/15 01:56:38;;;;;;;6.20;4.50;;;13.90;78.10;;;;;;5093816;28;20961;-70
2021/06/15 01:59:09;;;;;;;5.80;4.10;;;13.90;78.20;;;;;;5094367;28;20514;-68
2021/06/15 02:01:40;;;;;;;5.97;4.18;;;13.90;77.80;;;;;;5094222;28;20811;-69
2021/06/15 02:04:08;;;;;;;5.15;3.85;;;14.00;78.00;;;;;;5093578;28;20200;-69
2021/06/15 02:06:42;;;;;;;4.70;4.10;;;13.90;77.30;;;;;;5093474;28;20201;-69
2021/06/15 02:09:10;;;;;;;5.30;3.67;;;13.90;77.30;;;;;;5093747;28;20193;-69
2021/06/15 02:11:38;;;;;;;7.88;4.40;;;13.90;77.20;;;;;;5094058;28;21025;-69
2021/06/15 02:14:16;;;;;;;5.78;4.50;;;13.80;77.60;;;;;;5093290;28;20282;-69
2021/06/15 02:16:44;;;;;;;6.68;4.40;;;13.70;78.30;;;;;;5091368;28;20736;-69
2021/06/15 02:19:11;;;;;;;5.93;4.30;;;13.70;78.30;;;;;;5093526;28;20239;-69
2021/06/15 02:21:40;;;;;;;7.05;5.00;;;13.70;77.70;;;;;;5093996;28;20944;-69
2021/06/15 02:24:09;;;;;;;6.40;4.13;;;13.70;78.00;;;;;;5093317;28;20318;-69
2021/06/15 02:26:37;;;;;;;5.75;4.15;;;13.70;78.10;;;;;;5093787;28;20658;-69
2021/06/15 02:29:10;;;;;;;6.15;4.50;;;13.60;78.60;;;;;;5093991;28;20258;-68
2021/06/15 02:31:46;;;;;;;5.63;4.38;;;13.70;78.80;;;;;;5073714;28;20186;-69
2021/06/15 02:34:17;;;;;;;6.15;4.00;;;13.70;78.50;;;;;;5073425;28;20224;-68
2021/06/15 02:36:46;;;;;;;6.85;4.68;;;13.70;77.70;;;;;;5093099;28;20227;-69
2021/06/15 02:39:17;;;;;;;8.25;4.75;;;13.60;77.90;;;;;;5093173;28;20192;-70
2021/06/15 02:41:45;;;;;;;6.78;3.88;;;13.50;78.40;;;;;;5073278;28;20366;-69
2021/06/15 02:44:18;;;;;;;5.63;4.55;;;13.50;79.30;;;;;;5073129;28;20194;-69
2021/06/15 02:46:47;;;;;;;5.82;4.82;;;13.40;79.70;;;;;;5092822;28;20246;-69
2021/06/15 02:49:17;;;;;;;5.55;4.70;;;13.50;79.90;;;;;;5093549;28;20239;-69
2021/06/15 02:51:52;;;;;;;6.43;4.78;;;13.50;79.60;;;;;;5092995;28;20193;-68
2021/06/15 02:54:23;;;;;;;6.07;4.65;;;13.40;79.70;;;;;;5093178;28;20227;-69
2021/06/15 02:56:53;;;;;;;4.75;4.25;;;13.30;80.30;;;;;;5092811;28;20189;-69
2021/06/15 02:59:22;;;;;;;5.95;4.82;;;13.30;80.20;;;;;;5093022;28;20667;-69
2021/06/15 03:01:50;;;;;;;6.75;4.75;;;13.30;80.60;;;;;;5093034;28;20199;-69
2021/06/15 03:04:18;;;;;;;6.07;4.55;;;13.30;80.30;;;;;;5092325;28;20189;-69
2021/06/15 03:06:45;;;;;;;5.05;4.38;;;13.30;80.30;;;;;;5093155;28;20701;-69
2021/06/15 03:09:13;;;;;;;7.50;4.85;;;13.30;80.40;;;;;;5092777;28;20185;-69
2021/06/15 03:11:43;;;;;;;9.05;4.70;;;13.20;80.60;;;;;;5092432;28;20207;-68
2021/06/15 03:14:19;;;;;;;6.68;4.55;;;13.20;80.50;;;;;;5092345;28;20216;-69
2021/06/15 03:16:48;;;;;;;6.30;4.53;;;13.10;80.70;;;;;;5092947;28;20188;-69
2021/06/15 03:19:22;;;;;;;8.43;6.22;;;13.20;81.20;;;;;;5092393;28;20562;-72
2021/06/15 03:21:54;;;;;;;9.25;5.38;;;13.20;81.20;;;;;;5092795;28;20282;-69
2021/06/15 03:24:23;;;;;;;5.90;5.03;;;13.20;80.90;;;;;;5091421;28;20200;-69
2021/06/15 03:26:54;;;;;;;4.53;3.65;;;13.30;80.60;;;;;;5091990;28;20514;-69
2021/06/15 03:29:28;;;;;;;6.57;5.75;;;13.30;80.30;;;;;;5092430;28;20246;-69
2021/06/15 03:32:00;;;;;;;9.48;4.93;;;13.30;80.70;;;;;;5092345;28;20250;-70
2021/06/15 03:34:31;;;;;;;4.47;4.07;;;13.30;80.70;;;;;;5092470;28;20215;-69
2021/06/15 03:37:03;;;;;;;6.63;4.68;;;13.40;80.70;;;;;;5092455;28;20200;-69
2021/06/15 03:39:32;;;;;;;6.20;4.55;;;13.40;80.20;;;;;;5072389;28;20206;-69
2021/06/15 03:42:02;;;;;;;8.20;4.57;;;13.40;79.70;;;;;;5072356;28;20712;-69
2021/06/15 03:44:30;;;;;;;5.05;3.70;;;13.40;80.10;;;;;;5092439;28;20212;-69
2021/06/15 03:47:00;;;;;;;6.40;4.70;;;13.40;80.90;;;;;;5092032;28;20209;-68
2021/06/15 03:49:29;;;;;;;10.45;4.70;;;13.40;81.00;;;;;;5092259;28;20185;-69
2021/06/15 03:52:01;;;;;;;7.82;4.93;;;13.50;81.10;;;;;;5092496;28;20640;-69
2021/06/15 03:54:31;;;;;;;7.07;4.35;;;13.50;80.90;;;;;;5091979;28;20224;-69
2021/06/15 03:57:01;;;;;;;5.30;4.80;;;13.50;80.50;;;;;;5092855;28;20200;-69
2021/06/15 03:59:32;;;;;;;5.70;4.13;;;13.60;80.00;;;;;;5092311;28;20185;-69
2021/06/15 04:02:05;;;;;;;5.95;4.60;;;13.50;79.50;;;;;;5091879;28;20290;-69
2021/06/15 04:04:35;;;;;;;8.10;5.03;;;13.50;79.50;;;;;;5092601;28;20266;-69
2021/06/15 04:07:04;;;;;;;5.72;4.88;;;13.60;79.70;;;;;;5092253;28;20189;-68
2021/06/15 04:09:38;;;;;;;16.33;4.57;;;13.60;80.10;;;;;;5092144;28;20635;-69
2021/06/15 04:12:07;;;;;;;9.25;4.75;;;13.50;80.60;;;;;;5092368;28;20639;-69
2021/06/15 04:14:35;;;;;;;7.70;5.43;;;13.60;80.90;;;;;;5092232;28;20270;-69
2021/06/15 04:17:06;;;;;;;7.55;4.00;;;13.60;80.80;;;;;;5095393;28;20201;-69
2021/06/15 04:19:38;;;;;;;5.40;3.95;;;13.60;81.10;;;;;;5096336;28;20181;-69
2021/06/15 04:22:09;;;;;;;6.30;4.53;;;13.60;81.10;;;;;;5096691;28;20192;-68
2021/06/15 04:24:38;;;;;;;6.47;5.22;;;13.60;81.90;;;;;;5095919;28;20700;-69
2021/06/15 04:27:06;;;;;;;7.70;4.75;;;13.60;82.50;;;;;;5096361;28;20223;-69
2021/06/15 04:29:33;;;;;;;6.65;5.07;;;13.60;82.50;;;;;;5096092;28;20193;-69
2021/06/15 04:32:07;;;;;;;7.80;4.97;;;13.70;82.70;;;;;;5096427;28;20242;-68
2021/06/15 04:34:40;;;;;;;8.95;5.47;;;13.80;83.00;;;;;;5095871;28;20220;-68
2021/06/15 04:37:11;;;;;;;11.77;5.25;;;13.80;82.70;;;;;;5096282;28;20185;-69
2021/06/15 04:39:43;;;;;;;7.63;4.90;;;13.90;82.70;;;;;;5095830;28;20193;-69
2021/06/15 04:42:15;;;;;;;8.17;5.17;;;13.90;83.10;;;;;;5096181;28;20550;-69
2021/06/15 04:44:44;;;;;;;14.57;5.63;;;13.90;82.80;;;;;;5095377;28;20431;-68
2021/06/15 04:47:16;;;;;;;4.68;4.15;;;14.00;83.60;;;;;;5096124;28;20189;-68
2021/06/15 04:49:48;;;;;;;5.90;4.80;;;14.10;83.20;;;;;;5095456;28;20246;-68
2021/06/15 04:52:18;;;;;;;6.40;4.93;;;14.20;84.60;;;;;;5096083;28;20192;-68
2021/06/15 04:54:49;;;;;;;6.25;4.60;;;14.30;85.00;;;;;;5095562;28;20481;-68
2021/06/15 04:57:20;;;;;;;5.83;4.07;;;14.40;85.10;;;;;;5095970;28;20239;-69
2021/06/15 04:59:51;;;;;;;5.55;4.95;;;14.50;84.50;;;;;;5094496;28;20797;-68
2021/06/15 05:02:27;;;;;;;8.20;5.50;;;14.60;84.50;;;;;;5095953;28;20199;-68
2021/06/15 05:04:55;;;;;;;5.20;4.70;;;14.70;84.50;;;;;;5095546;28;20445;-69
2021/06/15 05:07:25;;;;;;;7.40;5.30;;;14.80;84.00;;;;;;5094912;28;20480;-68
2021/06/15 05:09:55;;;;;;;5.37;4.87;;;14.90;84.10;;;;;;5095717;28;20434;-69
2021/06/15 05:12:23;;;;;;;8.27;6.13;;;15.00;83.60;;;;;;5094411;28;20436;-68
2021/06/15 05:14:51;;;;;;;6.53;4.77;;;15.00;83.60;;;;;;5095237;28;20478;-68
2021/06/15 05:17:22;;;;;;;5.80;4.20;;;15.10;83.60;;;;;;5095222;28;20914;-68
2021/06/15 05:19:50;;;;;;;9.13;5.23;;;15.30;83.60;;;;;;5095437;28;20439;-69
2021/06/15 05:22:26;;;;;;;7.57;4.30;;;15.40;83.90;;;;;;5095081;28;20848;-68
2021/06/15 05:24:55;;;;;;;6.03;4.30;;;15.60;83.70;;;;;;5095347;28;20793;-69
2021/06/15 05:27:23;;;;;;;5.20;4.50;;;15.70;83.40;;;;;;5089570;28;20988;-69
2021/06/15 05:29:51;;;;;;;5.53;4.90;;;15.80;83.00;;;;;;5089556;28;20423;-69
2021/06/15 05:32:20;;;;;;;9.20;4.20;;;15.80;82.50;;;;;;5093067;28;20558;-69
2021/06/15 05:34:48;;;;;;;6.57;5.00;;;16.00;82.80;;;;;;5093497;28;20996;-69
2021/06/15 05:37:18;;;;;;;6.03;5.27;;;16.10;82.60;;;;;;5093137;28;20450;-69
2021/06/15 05:40:17;;;;;;;5.67;4.70;;;16.10;82.20;;;;;;5092986;28;20451;-68
2021/06/15 05:42:44;;;;;;;5.93;5.10;;;16.30;82.00;;;;;;5091311;28;20484;-69
2021/06/15 05:45:15;;;;;;;7.50;4.70;;;16.40;81.80;;;;;;5088907;28;20982;-69
2021/06/15 05:47:44;;;;;;;5.57;4.93;;;16.50;82.60;;;;;;5092788;28;20492;-69
2021/06/15 05:50:14;;;;;;;10.10;4.43;;;16.60;82.80;;;;;;5090686;28;20492;-69
2021/06/15 05:52:42;;;;;;;7.43;4.27;;;16.70;82.50;;;;;;5092519;28;20496;-69
2021/06/15 05:55:11;;;;;;;10.30;5.20;;;16.80;82.50;;;;;;5088599;28;20478;-69
2021/06/15 05:57:39;;;;;;;6.20;5.00;;;16.90;81.70;;;;;;5093051;28;20435;-71
2021/06/15 06:00:08;;;;;;;6.63;3.53;;;17.00;82.00;;;;;;5092484;28;20433;-70
2021/06/15 06:02:35;;;;;;;6.40;4.63;;;17.10;83.00;;;;;;5092633;28;20796;-69
2021/06/15 06:08:04;;;;;;;8.20;5.73;;;17.30;83.20;;;;;;5092781;28;20446;-70
2021/06/15 06:08:07;;;;;;;5.43;3.47;;;17.40;83.40;;;;;;5092726;28;20906;-69
2021/06/15 06:10:35;;;;;;;10.83;4.13;;;17.50;83.30;;;;;;5089680;28;20439;-71
2021/06/15 06:13:11;;;;;;;6.60;3.83;;;17.60;82.40;;;;;;5092552;28;20435;-69
2021/06/15 06:15:39;;;;;;;6.87;4.30;;;17.70;81.20;;;;;;5092698;28;20439;-69
2021/06/15 06:18:09;;;;;;;4.07;3.40;;;17.80;79.90;;;;;;5092207;28;20435;-69
2021/06/15 06:20:38;;;;;;;6.37;4.77;;;17.90;79.40;;;;;;5092597;28;20767;-70
2021/06/15 06:23:08;;;;;;;7.67;4.10;;;18.00;79.20;;;;;;5091906;28;20489;-68
2021/06/15 06:25:35;;;;;;;5.53;4.17;;;18.10;79.20;;;;;;5092714;28;20929;-70
2021/06/15 06:28:03;;;;;;;5.10;4.00;;;18.20;79.40;;;;;;5092032;28;20463;-70
2021/06/15 06:30:31;;;;;;;7.53;4.07;;;18.30;79.30;;;;;;5092013;28;20512;-69
2021/06/15 06:32:58;;;;;;;5.90;4.40;;;18.40;79.40;;;;;;5088840;28;20427;-68
2021/06/15 06:35:25;;;;;;;4.60;3.70;;;18.50;79.20;;;;;;5091943;28;20479;-68
2021/06/15 06:37:54;;;;;;;6.80;4.03;;;18.60;78.40;;;;;;5092368;28;20431;-71
2021/06/15 06:40:22;;;;;;;6.10;4.10;;;18.70;77.50;;;;;;5088608;28;20431;-70
2021/06/15 06:42:49;;;;;;;5.03;4.00;;;18.80;76.70;;;;;;5091276;28;20892;-69
2021/06/15 06:45:17;;;;;;;6.97;3.97;;;18.90;77.10;;;;;;5087628;28;20439;-70
2021/06/15 06:47:47;;;;;;;5.33;3.63;;;19.00;77.50;;;;;;5090601;28;20435;-69
2021/06/15 06:50:14;;;;;;;4.53;3.20;;;19.20;77.50;;;;;;5088255;28;20435;-69
2021/06/15 06:52:41;;;;;;;5.03;4.00;;;19.30;75.80;;;;;;5090012;28;20466;-68
2021/06/15 06:55:09;;;;;;;6.07;4.30;;;19.40;75.30;;;;;;5092270;28;20515;-69
2021/06/15 06:57:37;;;;;;;6.30;4.07;;;19.50;75.40;;;;;;5091584;28;20474;-69
2021/06/15 07:00:06;;;;;;;5.17;3.47;;;19.60;76.20;;;;;;5091612;28;20463;-69
2021/06/15 07:02:38;;;;;;;4.80;3.37;;;19.70;74.80;;;;;;5092296;28;20478;-69
2021/06/15 07:05:06;;;;;;;5.20;3.20;;;19.80;73.80;;;;;;5091193;28;20465;-71
2021/06/15 07:07:35;;;;;;;5.90;4.33;;;19.90;72.90;;;;;;5091642;28;20488;-70
2021/06/15 07:10:34;;;;;;;5.87;3.50;;;20.00;73.00;;;;;;5091694;28;20463;-70
2021/06/15 07:13:03;;;;;;;5.60;3.43;;;20.10;73.00;;;;;;5073918;28;20510;-69
2021/06/15 07:15:30;;;;;;;5.97;3.20;;;20.20;71.10;;;;;;5090327;28;20572;-70
2021/06/15 07:17:58;;;;;;;6.83;3.20;;;20.30;70.20;;;;;;5091003;28;20431;-70
2021/06/15 07:20:25;;;;;;;5.93;3.03;;;20.40;68.70;;;;;;5090868;28;20439;-74
2021/06/15 07:22:52;;;;;;;10.27;3.33;;;20.50;66.00;;;;;;5090726;28;20443;-70
2021/06/15 07:25:19;;;;;;;6.23;3.07;;;20.60;66.10;;;;;;5090086;28;20458;-71
2021/06/15 07:27:47;;;;;;;5.03;2.67;;;20.70;65.80;;;;;;5090896;28;20467;-69
2021/06/15 07:30:17;;;;;;;4.57;2.90;;;20.80;63.90;;;;;;5090748;28;20526;-70
2021/06/15 07:32:44;;;;;;;5.13;2.90;;;20.90;64.80;;;;;;5090454;28;20791;-70
2021/06/15 07:35:12;;;;;;;5.00;3.03;;;21.00;64.70;;;;;;5090044;28;20474;-70
2021/06/15 07:37:41;;;;;;;3.50;2.60;;;21.10;63.10;;;;;;5091462;28;20443;-70
2021/06/15 07:40:09;;;;;;;3.40;2.70;;;21.20;62.60;;;;;;5090058;28;20435;-69
2021/06/15 07:42:36;;;;;;;4.10;2.23;;;21.30;61.80;;;;;;5089844;28;20496;-69
2021/06/15 07:45:06;;;;;;;4.17;3.13;;;21.40;59.00;;;;;;5089562;28;20843;-70
2021/06/15 07:47:35;;;;;;;7.53;3.20;;;21.40;59.90;;;;;;5092164;28;20434;-70
2021/06/15 07:50:04;;;;;;;4.90;3.60;;;21.60;60.20;;;;;;5092314;28;20940;-70
2021/06/15 07:52:31;;;;;;;5.70;3.30;;;21.70;61.10;;;;;;5092037;28;20489;-69
2021/06/15 07:54:58;;;;;;;5.93;3.30;;;21.80;62.10;;;;;;5092656;28;20486;-70
2021/06/15 07:57:26;;;;;;;5.70;3.60;;;22.00;62.70;;;;;;5092598;28;20768;-69
2021/06/15 07:59:53;;;;;;;5.87;3.20;;;22.20;61.30;;;;;;5092461;28;20435;-69
2021/06/15 08:02:20;;;;;;;3.90;2.70;;;22.30;61.20;;;;;;5091914;28;20431;-70
2021/06/15 08:04:48;;;;;;;3.70;3.20;;;22.40;61.90;;;;;;5092592;28;20434;-70
2021/06/15 08:07:15;;;;;;;6.13;3.37;;;22.60;61.70;;;;;;5092205;28;20526;-70
2021/06/15 08:09:42;;;;;;;6.70;2.80;;;22.60;59.60;;;;;;5092572;28;20492;-70
2021/06/15 08:12:10;;;;;;;4.70;3.40;;;22.80;60.00;;;;;;5091768;28;20432;-70
2021/06/15 08:14:37;;;;;;;6.23;4.20;;;22.90;59.20;;;;;;5092310;28;20981;-69
2021/06/15 08:17:06;;;;;;;5.17;2.70;;;23.10;59.70;;;;;;5092043;28;20436;-69
2021/06/15 08:19:33;;;;;;;5.03;2.70;;;23.20;58.80;;;;;;5092553;28;20447;-69
2021/06/15 08:22:01;;;;;;;5.60;2.77;;;23.30;57.20;;;;;;5091670;28;20443;-70
2021/06/15 08:24:29;;;;;;;5.60;3.00;;;23.40;57.00;;;;;;5092314;28;20439;-69
2021/06/15 08:26:55;;;;;;;6.60;3.10;;;23.50;57.90;;;;;;5091290;28;20524;-69
2021/06/15 08:29:22;;;;;;;6.47;2.63;;;23.60;56.30;;;;;;5092118;28;20447;-69
2021/06/15 08:31:50;;;;;;;3.70;2.80;;;23.80;56.00;;;;;;5091874;28;20443;-69
2021/06/15 08:34:17;;;;;;;5.23;2.67;;;23.90;55.40;;;;;;5092147;28;20551;-69
2021/06/15 08:36:44;;;;;;;6.70;2.90;;;24.00;55.50;;;;;;5091644;28;20512;-69
2021/06/15 08:39:12;;;;;;;4.97;2.87;;;24.10;54.40;;;;;;5092352;28;20443;-69
2021/06/15 08:41:40;;;;;;;7.77;4.10;;;24.20;55.00;;;;;;5091853;28;20462;-69
2021/06/15 08:44:08;;;;;;;7.03;3.00;;;24.40;55.10;;;;;;5092237;28;20435;-69
2021/06/15 08:46:35;;;;;;;4.40;3.00;;;24.50;54.20;;;;;;5091624;28;20431;-68
2021/06/15 08:49:04;;;;;;;5.93;2.93;;;24.60;53.80;;;;;;5092313;28;20439;-69
2021/06/15 08:51:31;;;;;;;8.20;2.87;;;24.60;52.70;;;;;;5100869;28;20456;-70
2021/06/15 08:54:03;;;;;;;6.33;2.87;;;24.70;52.90;;;;;;5112482;28;21015;-69
2021/06/15 08:56:33;;;;;;;7.10;2.90;;;24.80;52.70;;;;;;5101549;28;20512;-69
2021/06/15 08:59:12;;;;;;;7.37;3.17;;;24.90;52.60;;;;;;5092227;28;20446;-69
2021/06/15 09:01:39;;;;;;;6.03;2.90;;;25.00;53.60;;;;;;5092149;28;20439;-69
2021/06/15 09:04:07;;;;;;;9.97;3.90;;;25.10;52.30;;;;;;5095169;28;20423;-69
2021/06/15 09:06:34;;;;;;;4.10;2.63;;;25.20;52.30;;;;;;5095286;28;20443;-70
2021/06/15 09:09:01;;;;;;;6.00;2.80;;;25.30;51.10;;;;;;5095658;28;20442;-69
2021/06/15 09:11:50;;;;;;;7.70;3.63;;;25.40;50.00;;;;;;5095289;28;20443;-69
2021/06/15 09:14:17;;;;;;;4.53;2.30;;;25.50;50.10;;;;;;5095103;28;20436;-69
2021/06/15 09:16:49;;;;;;;6.53;2.70;;;25.60;48.50;;;;;;5095567;28;20505;-69
2021/06/15 09:19:21;;;;;;;5.93;2.10;;;25.70;47.70;;;;;;5095112;28;20445;-69
2021/06/15 09:21:57;;;;;;;4.97;2.33;;;25.90;48.10;;;;;;5095484;28;20530;-69
2021/06/15 09:24:26;;;;;;;4.73;2.00;;;26.00;48.70;;;;;;5093534;28;20440;-72
2021/06/15 09:27:03;;;;;;;4.50;2.30;;;26.10;47.20;;;;;;5094285;28;20502;-69
2021/06/15 09:29:45;;;;;;;3.43;2.13;;;26.20;47.50;;;;;;5095371;28;20527;-69
2021/06/15 09:32:16;;;;;;;5.30;3.30;;;26.40;46.00;;;;;;5075156;28;20424;-69
2021/06/15 09:34:52;;;;;;;7.20;2.43;;;26.50;45.80;;;;;;5076526;28;20554;-68
2021/06/15 09:37:26;;;;;;;3.70;2.30;;;26.50;44.10;;;;;;5101800;28;20779;-69
2021/06/15 09:39:53;;;;;;;3.97;2.60;;;26.60;44.20;;;;;;5115775;28;20472;-69
2021/06/15 09:42:22;;;;;;;3.80;2.10;;;26.60;43.20;;;;;;5115932;28;20845;-69
2021/06/15 09:44:49;;;;;;;6.37;2.70;;;26.70;43.80;;;;;;5096255;28;20477;-69
2021/06/15 09:47:16;;;;;;;3.77;2.60;;;26.90;44.40;;;;;;5095284;28;20475;-70
2021/06/15 09:49:44;;;;;;;11.40;2.70;;;27.00;44.40;;;;;;5094801;28;20466;-69
2021/06/15 09:52:22;;;;;;;5.43;2.83;;;27.10;43.80;;;;;;5095173;28;20481;-69
2021/06/15 09:54:51;;;;;;;3.10;2.30;;;27.20;43.10;;;;;;5094761;28;20995;-69
2021/06/15 09:57:28;;;;;;;3.80;2.10;;;27.30;43.00;;;;;;5074636;28;20850;-69
2021/06/15 10:00:11;;;;;;;7.43;2.20;;;27.30;42.80;;;;;;5092977;28;20446;-69
2021/06/15 10:02:48;;;;;;;4.80;2.77;;;27.40;43.00;;;;;;5092122;28;20427;-70
2021/06/15 10:05:30;;;;;;;3.17;2.13;;;27.50;42.70;;;;;;5094676;28;20434;-69
2021/06/15 10:08:04;;;;;;;4.33;2.10;;;27.60;42.20;;;;;;5094352;28;20438;-69
2021/06/15 10:10:34;;;;;;;2.67;2.27;;;27.60;42.70;;;;;;5094607;28;20981;-69
2021/06/15 10:13:02;;;;;;;4.27;2.60;;;27.60;42.30;;;;;;5093249;28;20437;-70
2021/06/15 10:15:30;;;;;;;3.70;2.67;;;27.80;43.10;;;;;;5094005;28;20482;-69
2021/06/15 10:17:59;;;;;;;2.87;2.00;;;27.80;43.20;;;;;;5093957;28;20423;-69
2021/06/15 10:20:31;;;;;;;3.53;2.60;;;27.90;43.20;;;;;;5094002;28;20537;-69
2021/06/15 10:23:00;;;;;;;3.73;2.33;;;28.00;39.80;;;;;;5094318;28;20435;-69
2021/06/15 10:25:29;;;;;;;4.27;2.43;;;28.00;42.00;;;;;;5094780;28;20496;-68
2021/06/15 10:27:57;;;;;;;7.63;2.83;;;28.10;43.10;;;;;;5096788;28;20498;-69
2021/06/15 10:30:37;;;;;;;4.10;2.57;;;28.20;42.20;;;;;;5092488;28;20443;-68
2021/06/15 10:33:12;;;;;;;3.70;2.50;;;28.20;41.80;;;;;;5094451;28;20471;-69
2021/06/15 10:35:45;;;;;;;4.23;2.77;;;28.20;41.60;;;;;;5093920;28;20478;-69
2021/06/15 10:38:19;;;;;;;6.07;2.03;;;28.30;43.50;;;;;;5092938;28;20845;-69
2021/06/15 10:40:48;;;;;;;3.87;2.70;;;28.40;42.50;;;;;;5100698;28;20519;-69
2021/06/15 10:43:29;;;;;;;4.30;2.40;;;28.50;40.70;;;;;;5114722;28;20458;-70
2021/06/15 10:46:07;;;;;;;5.40;2.50;;;28.50;42.30;;;;;;5106640;28;20438;-69
2021/06/15 10:48:43;;;;;;;4.20;2.83;;;28.60;43.30;;;;;;5114590;28;20434;-70
2021/06/15 10:51:25;;;;;;;4.73;2.70;;;28.70;43.10;;;;;;5103551;28;20462;-69
2021/06/15 10:53:53;;;;;;;5.97;2.50;;;28.80;43.00;;;;;;5098345;28;20430;-69
2021/06/15 10:56:23;;;;;;;3.77;2.30;;;28.90;43.40;;;;;;5094074;28;20829;-69
2021/06/15 10:59:01;;;;;;;10.00;2.07;;;28.90;43.10;;;;;;5097808;28;20435;-69
2021/06/15 11:01:30;;;;;;;3.70;2.10;;;28.90;40.50;;;;;;5110653;28;20434;-69
2021/06/15 11:03:58;;;;;;;4.20;2.50;;;29.00;42.20;;;;;;5113426;28;20851;-73
2021/06/15 11:06:47;;;;;;;2.70;1.80;;;29.10;41.70;;;;;;5114332;28;20503;-69
2021/06/15 11:09:25;;;;;;;3.83;2.13;;;29.10;40.00;;;;;;5114306;28;20430;-69
2021/06/15 11:12:18;;;;;;;3.83;2.50;;;29.20;39.70;;;;;;5113536;28;20978;-69
2021/06/15 11:15:23;;;;;;;3.37;2.33;;;29.20;39.30;;;;;;5069017;28;20921;-69
2021/06/15 11:17:54;;;;;;;3.30;1.90;;;29.20;39.60;;;;;;5093120;28;20913;-68
2021/06/15 11:20:33;;;;;;;3.27;2.10;;;29.20;38.90;;;;;;5092733;28;20842;-70
2021/06/15 11:23:18;;;;;;;2.70;1.87;;;29.30;36.70;;;;;;5092286;28;20435;-70
2021/06/15 11:25:50;;;;;;;4.40;2.40;;;29.40;36.60;;;;;;5092820;28;20540;-69
2021/06/15 11:28:49;;;;;;;4.80;2.00;;;29.40;38.00;;;;;;5093148;28;20948;-69
2021/06/15 11:31:37;;;;;;;3.53;2.20;;;29.30;38.70;;;;;;5092012;28;20448;-69
2021/06/15 11:34:15;;;;;;;3.57;2.10;;;29.30;37.20;;;;;;5091442;28;20435;-69
2021/06/15 11:36:45;;;;;;;3.17;1.90;;;29.30;36.60;;;;;;5092940;28;20511;-69
2021/06/15 11:39:37;;;;;;;3.13;2.00;;;29.40;38.50;;;;;;5092375;28;20832;-69
2021/06/15 11:42:19;;;;;;;3.50;2.03;;;29.50;38.30;;;;;;5092491;28;20481;-69
2021/06/15 11:44:58;;;;;;;5.70;2.73;;;29.50;38.10;;;;;;5092382;28;20431;-68
2021/06/15 11:47:32;;;;;;;7.13;2.10;;;29.60;38.20;;;;;;5092935;28;20444;-69
2021/06/15 11:50:12;;;;;;;3.50;2.30;;;29.60;37.10;;;;;;5092285;28;20426;-69
2021/06/15 11:52:44;;;;;;;5.30;2.43;;;29.60;36.90;;;;;;5092489;28;20813;-69
2021/06/15 11:55:12;;;;;;;3.23;1.87;;;29.60;36.90;;;;;;5084673;28;20430;-69
2021/06/15 11:57:40;;;;;;;4.37;1.93;;;29.60;36.60;;;;;;5075787;28;20476;-71
2021/06/15 12:00:16;;;;;;;3.10;1.70;;;29.60;36.60;;;;;;5084424;28;20948;-69
2021/06/15 12:02:48;;;;;;;3.70;2.63;;;29.60;36.80;;;;;;5088785;28;20446;-68
2021/06/15 12:05:19;;;;;;;3.17;2.03;;;29.70;37.30;;;;;;5082393;28;20446;-69
2021/06/15 12:07:53;;;;;;;2.90;1.83;;;29.80;37.80;;;;;;5090798;28;20465;-69
2021/06/15 12:10:22;;;;;;;5.47;2.23;;;29.80;36.50;;;;;;5086063;28;20446;-69
2021/06/15 12:13:01;;;;;;;3.50;1.90;;;29.80;36.10;;;;;;5071507;28;20503;-68
2021/06/15 12:15:34;;;;;;;7.07;2.50;;;29.90;36.50;;;;;;5081288;28;20890;-69
2021/06/15 12:18:05;;;;;;;2.53;1.73;;;29.90;36.40;;;;;;5076911;28;20533;-70
2021/06/15 12:20:39;;;;;;;4.97;2.03;;;30.00;36.20;;;;;;5076116;28;21139;-70
2021/06/15 12:23:41;;;;;;;3.23;2.07;;;30.00;34.80;;;;;;5091697;28;20471;-69
2021/06/15 12:26:17;;;;;;;2.77;2.00;;;30.00;34.30;;;;;;5084303;28;20463;-69
2021/06/15 12:28:50;;;;;;;6.10;1.77;;;30.00;36.40;;;;;;5087938;28;20498;-69
2021/06/15 12:31:22;;;;;;;4.50;2.27;;;30.00;34.20;;;;;;5087630;28;20446;-69
2021/06/15 12:33:59;;;;;;;3.50;1.87;;;30.00;34.30;;;;;;5091076;28;20444;-71
2021/06/15 12:36:29;;;;;;;4.50;1.93;;;30.00;33.80;;;;;;5090926;28;20488;-69
2021/06/15 12:39:12;;;;;;;4.97;2.00;;;30.00;33.90;;;;;;5095037;28;20448;-69
2021/06/15 12:41:41;;;;;;;2.90;1.47;;;30.00;35.00;;;;;;5090159;28;20453;-69
2021/06/15 12:44:16;;;;;;;5.00;1.80;;;30.00;34.40;;;;;;5095087;28;20836;-69
2021/06/15 12:46:59;;;;;;;4.13;2.40;;;30.10;35.00;;;;;;5091300;28;20446;-70
2021/06/15 12:49:55;;;;;;;7.60;2.33;;;30.10;33.00;;;;;;5096178;28;20442;-69
2021/06/15 12:52:37;;;;;;;3.87;1.50;;;30.10;35.00;;;;;;5101731;28;20442;-69
2021/06/15 12:55:09;;;;;;;14.80;2.27;;;30.10;34.40;;;;;;5103342;28;20442;-70
2021/06/15 12:57:38;;;;;;;4.03;1.70;;;30.10;34.80;;;;;;5101260;28;20845;-69
2021/06/15 13:00:09;;;;;;;7.83;3.37;;;30.20;34.90;;;;;;5106144;28;20444;-70
2021/06/15 13:02:47;;;;;;;3.23;2.00;;;30.30;34.40;;;;;;5092260;28;20442;-69
2021/06/15 13:05:19;;;;;;;3.80;1.87;;;30.30;32.50;;;;;;5099889;28;20437;-69
2021/06/15 13:07:58;;;;;;;7.00;2.10;;;30.30;32.70;;;;;;5102663;28;20442;-68